createdAt,value
2017-07-07T00:00:39.482Z,0
2017-07-07T00:01:48.406Z,0
2017-07-07T00:02:57.333Z,0
2017-07-07T00:04:06.257Z,0
2017-07-07T00:05:15.176Z,0
2017-07-07T00:06:24.106Z,0
2017-07-07T00:07:33.117Z,0
2017-07-07T00:08:42.129Z,0
2017-07-07T00:09:51.056Z,0
2017-07-07T00:10:59.977Z,0
2017-07-07T00:12:08.897Z,0
2017-07-07T00:13:17.824Z,0
2017-07-07T00:14:27.077Z,0
2017-07-07T00:15:35.999Z,0
2017-07-07T00:16:44.928Z,0
2017-07-07T00:17:53.848Z,0
2017-07-07T00:19:02.769Z,0
2017-07-07T00:20:11.694Z,0
2017-07-07T00:21:20.609Z,0
2017-07-07T00:22:29.527Z,0
2017-07-07T00:23:38.447Z,0
2017-07-07T00:24:47.371Z,0
2017-07-07T00:25:56.293Z,0
2017-07-07T00:27:05.212Z,0
2017-07-07T00:28:14.133Z,0
2017-07-07T00:29:23.059Z,0
2017-07-07T00:30:31.984Z,0
2017-07-07T00:31:40.910Z,0
2017-07-07T00:32:49.831Z,0
2017-07-07T00:33:58.760Z,0
2017-07-07T00:35:07.675Z,0
2017-07-07T00:36:16.601Z,0
2017-07-07T00:37:25.524Z,0
2017-07-07T00:38:34.441Z,0
2017-07-07T00:39:43.362Z,0
2017-07-07T00:40:52.296Z,0
2017-07-07T00:42:01.214Z,0
2017-07-07T00:43:10.134Z,0
2017-07-07T00:44:19.058Z,0
2017-07-07T00:45:27.975Z,0
2017-07-07T00:46:36.894Z,0
2017-07-07T00:47:45.812Z,0
2017-07-07T00:48:54.737Z,0
2017-07-07T00:50:03.657Z,0
2017-07-07T00:51:12.577Z,0
2017-07-07T00:52:21.499Z,0
2017-07-07T00:53:30.422Z,0
2017-07-07T00:54:39.347Z,0
2017-07-07T00:55:48.270Z,0
2017-07-07T00:56:57.184Z,0
2017-07-07T00:58:06.113Z,0
2017-07-07T00:59:15.028Z,0
2017-07-07T01:00:23.948Z,0
2017-07-07T01:01:32.864Z,0
2017-07-07T01:02:41.781Z,0
2017-07-07T01:03:50.704Z,0
2017-07-07T01:04:59.621Z,0
2017-07-07T01:06:08.545Z,0
2017-07-07T01:07:17.474Z,0
2017-07-07T01:08:26.398Z,0
2017-07-07T01:09:35.322Z,0
2017-07-07T01:10:44.249Z,0
2017-07-07T01:11:53.171Z,0
2017-07-07T01:13:02.424Z,0
2017-07-07T01:14:11.349Z,0
2017-07-07T01:15:20.267Z,0
2017-07-07T01:16:29.189Z,0
2017-07-07T01:17:38.109Z,0
2017-07-07T01:18:47.027Z,0
2017-07-07T01:19:55.948Z,0
2017-07-07T01:21:04.872Z,0
2017-07-07T01:22:13.795Z,0
2017-07-07T01:23:22.713Z,0
2017-07-07T01:24:31.638Z,0
2017-07-07T01:25:40.565Z,0
2017-07-07T01:26:49.489Z,0
2017-07-07T01:27:58.416Z,0
2017-07-07T01:29:07.331Z,0
2017-07-07T01:30:16.254Z,0
2017-07-07T01:31:25.179Z,0
2017-07-07T01:32:34.101Z,0
2017-07-07T01:33:57.986Z,0
2017-07-07T01:35:06.910Z,0
2017-07-07T01:36:15.836Z,0
2017-07-07T01:37:24.760Z,0
2017-07-07T01:38:33.688Z,0
2017-07-07T01:39:42.699Z,0
2017-07-07T01:40:51.623Z,0
2017-07-07T01:42:00.546Z,0
2017-07-07T01:43:09.462Z,0
2017-07-07T01:44:18.382Z,0
2017-07-07T01:45:27.305Z,0
2017-07-07T01:46:36.224Z,0
2017-07-07T01:47:45.149Z,0
2017-07-07T01:48:54.073Z,0
2017-07-07T01:50:02.997Z,0
2017-07-07T01:51:11.915Z,0
2017-07-07T01:52:20.838Z,0
2017-07-07T01:53:29.770Z,0
2017-07-07T01:54:38.697Z,0
2017-07-07T01:55:47.613Z,0
2017-07-07T01:56:56.537Z,0
2017-07-07T01:58:05.465Z,0
2017-07-07T01:59:14.391Z,0
2017-07-07T02:00:23.315Z,0
2017-07-07T02:01:32.240Z,0
2017-07-07T02:02:41.165Z,0
2017-07-07T02:03:50.090Z,0
2017-07-07T02:04:59.014Z,0
2017-07-07T02:06:07.933Z,0
2017-07-07T02:07:16.857Z,0
2017-07-07T02:08:25.778Z,0
2017-07-07T02:09:34.697Z,0
2017-07-07T02:10:43.623Z,0
2017-07-07T02:11:52.546Z,0
2017-07-07T02:13:01.463Z,0
2017-07-07T02:14:10.390Z,0
2017-07-07T02:15:19.310Z,0
2017-07-07T02:16:28.227Z,0
2017-07-07T02:17:37.141Z,0
2017-07-07T02:18:46.069Z,0
2017-07-07T02:19:54.986Z,0
2017-07-07T02:21:03.905Z,0
2017-07-07T02:22:12.833Z,0
2017-07-07T02:23:21.756Z,0
2017-07-07T02:24:30.678Z,0
2017-07-07T02:25:39.604Z,0
2017-07-07T02:26:48.531Z,0
2017-07-07T02:27:57.450Z,0
2017-07-07T02:29:06.374Z,0
2017-07-07T02:30:15.306Z,0
2017-07-07T02:31:24.558Z,0
2017-07-07T02:32:33.476Z,0
2017-07-07T02:33:42.400Z,0
2017-07-07T02:34:51.320Z,0
2017-07-07T02:36:00.242Z,0
2017-07-07T02:37:09.160Z,0
2017-07-07T02:38:18.083Z,0
2017-07-07T02:39:27.007Z,0
2017-07-07T02:40:35.925Z,0
2017-07-07T02:41:44.844Z,0
2017-07-07T02:42:53.765Z,0
2017-07-07T02:44:02.688Z,0
2017-07-07T02:45:11.615Z,0
2017-07-07T02:46:20.540Z,0
2017-07-07T02:47:29.463Z,0
2017-07-07T02:48:38.390Z,0
2017-07-07T02:49:47.317Z,0
2017-07-07T02:50:56.242Z,0
2017-07-07T02:52:05.166Z,0
2017-07-07T02:53:14.087Z,0
2017-07-07T02:54:23.010Z,0
2017-07-07T02:55:31.929Z,0
2017-07-07T02:56:40.842Z,0
2017-07-07T02:57:49.770Z,0
2017-07-07T02:58:58.691Z,0
2017-07-07T03:00:07.605Z,0
2017-07-07T03:01:16.525Z,0
2017-07-07T03:02:25.442Z,0
2017-07-07T03:03:34.354Z,0
2017-07-07T03:04:43.274Z,0
2017-07-07T03:05:52.201Z,0
2017-07-07T03:07:01.122Z,0
2017-07-07T03:08:10.044Z,0
2017-07-07T03:09:18.969Z,0
2017-07-07T03:10:27.888Z,0
2017-07-07T03:11:36.807Z,0
2017-07-07T03:12:45.728Z,0
2017-07-07T03:13:54.650Z,0
2017-07-07T03:15:03.578Z,0
2017-07-07T03:16:12.495Z,0
2017-07-07T03:17:21.417Z,0
2017-07-07T03:18:30.344Z,0
2017-07-07T03:19:39.263Z,5
2017-07-07T03:20:48.185Z,5
2017-07-07T03:21:57.110Z,5
2017-07-07T03:23:06.034Z,5
2017-07-07T03:24:14.961Z,5
2017-07-07T03:25:23.890Z,5
2017-07-07T03:26:32.817Z,5
2017-07-07T03:27:41.734Z,5
2017-07-07T03:28:50.654Z,5
2017-07-07T03:29:59.585Z,5
2017-07-07T03:31:08.513Z,5
2017-07-07T03:32:17.763Z,5
2017-07-07T03:33:26.770Z,5
2017-07-07T03:34:35.699Z,5
2017-07-07T03:35:44.621Z,5
2017-07-07T03:36:53.544Z,5
2017-07-07T03:38:02.467Z,5
2017-07-07T03:39:11.390Z,10
2017-07-07T03:40:20.313Z,10
2017-07-07T03:41:29.234Z,10
2017-07-07T03:42:38.159Z,10
2017-07-07T03:43:47.079Z,10
2017-07-07T03:44:56.085Z,10
2017-07-07T03:46:05.006Z,10
2017-07-07T03:47:13.926Z,10
2017-07-07T03:48:22.850Z,10
2017-07-07T03:49:31.772Z,10
2017-07-07T03:50:40.696Z,5
2017-07-07T03:51:49.629Z,5
2017-07-07T03:52:58.544Z,5
2017-07-07T03:54:07.464Z,10
2017-07-07T03:55:16.389Z,10
2017-07-07T03:56:25.313Z,10
2017-07-07T03:57:34.230Z,10
2017-07-07T03:58:43.161Z,10
2017-07-07T03:59:52.084Z,5
2017-07-07T04:01:01.010Z,5
2017-07-07T04:02:09.936Z,5
2017-07-07T04:03:18.849Z,5
2017-07-07T04:04:27.766Z,5
2017-07-07T04:05:36.691Z,5
2017-07-07T04:06:45.622Z,5
2017-07-07T04:07:54.544Z,5
2017-07-07T04:09:03.466Z,5
2017-07-07T04:10:12.388Z,5
2017-07-07T04:11:21.303Z,5
2017-07-07T04:12:30.217Z,5
2017-07-07T04:13:39.144Z,5
2017-07-07T04:14:48.055Z,5
2017-07-07T04:15:56.977Z,5
2017-07-07T04:17:05.903Z,10
2017-07-07T04:18:14.820Z,10
2017-07-07T04:19:23.731Z,10
2017-07-07T04:20:32.658Z,10
2017-07-07T04:21:41.577Z,10
2017-07-07T04:22:50.506Z,10
2017-07-07T04:23:59.427Z,10
2017-07-07T04:25:08.349Z,10
2017-07-07T04:26:17.264Z,15
2017-07-07T04:27:26.190Z,15
2017-07-07T04:28:35.109Z,15
2017-07-07T04:29:44.027Z,20
2017-07-07T04:30:52.956Z,20
2017-07-07T04:32:02.200Z,20
2017-07-07T04:33:11.125Z,20
2017-07-07T04:34:20.058Z,20
2017-07-07T04:35:28.963Z,20
2017-07-07T04:36:37.883Z,20
2017-07-07T04:37:46.803Z,20
2017-07-07T04:38:55.810Z,15
2017-07-07T04:40:04.735Z,15
2017-07-07T04:41:13.661Z,15
2017-07-07T04:42:22.579Z,15
2017-07-07T04:43:31.501Z,15
2017-07-07T04:44:40.432Z,15
2017-07-07T04:45:49.352Z,10
2017-07-07T04:46:58.273Z,10
2017-07-07T04:48:07.203Z,10
2017-07-07T04:49:16.208Z,10
2017-07-07T04:50:25.128Z,10
2017-07-07T04:51:34.059Z,10
2017-07-07T04:52:42.976Z,10
2017-07-07T04:53:51.911Z,10
2017-07-07T04:55:00.843Z,10
2017-07-07T04:56:09.769Z,10
2017-07-07T04:57:18.697Z,10
2017-07-07T04:58:27.616Z,10
2017-07-07T04:59:36.540Z,10
2017-07-07T05:00:45.460Z,5
2017-07-07T05:01:54.386Z,5
2017-07-07T05:03:03.302Z,5
2017-07-07T05:04:12.223Z,5
2017-07-07T05:05:21.141Z,5
2017-07-07T05:06:30.402Z,5
2017-07-07T05:07:39.325Z,5
2017-07-07T05:08:48.240Z,5
2017-07-07T05:09:57.167Z,5
2017-07-07T05:11:06.092Z,5
2017-07-07T05:12:15.013Z,5
2017-07-07T05:13:23.934Z,5
2017-07-07T05:14:32.864Z,5
2017-07-07T05:15:41.787Z,5
2017-07-07T05:16:50.711Z,5
2017-07-07T05:17:59.635Z,5
2017-07-07T05:19:08.649Z,5
2017-07-07T05:20:17.570Z,5
2017-07-07T05:21:26.498Z,5
2017-07-07T05:22:35.426Z,5
2017-07-07T05:23:44.342Z,5
2017-07-07T05:24:53.269Z,5
2017-07-07T05:26:02.189Z,5
2017-07-07T05:27:11.115Z,5
2017-07-07T05:28:20.027Z,5
2017-07-07T05:29:28.950Z,5
2017-07-07T05:30:37.876Z,5
2017-07-07T05:31:46.801Z,5
2017-07-07T05:32:55.720Z,5
2017-07-07T05:34:04.640Z,5
2017-07-07T05:35:13.555Z,5
2017-07-07T05:36:22.482Z,5
2017-07-07T05:37:31.404Z,5
2017-07-07T05:38:40.323Z,5
2017-07-07T05:39:49.246Z,5
2017-07-07T05:40:58.164Z,5
2017-07-07T05:42:07.090Z,5
2017-07-07T05:43:16.008Z,5
2017-07-07T05:44:24.933Z,5
2017-07-07T05:45:33.861Z,10
2017-07-07T05:46:42.776Z,10
2017-07-07T05:47:51.696Z,10
2017-07-07T05:49:00.627Z,15
2017-07-07T05:50:09.541Z,15
2017-07-07T05:51:18.456Z,15
2017-07-07T05:52:27.713Z,15
2017-07-07T05:53:36.715Z,10
2017-07-07T05:54:45.638Z,10
2017-07-07T05:55:54.560Z,10
2017-07-07T05:57:03.488Z,10
2017-07-07T05:58:12.403Z,10
2017-07-07T05:59:21.326Z,15
2017-07-07T06:00:30.249Z,20
2017-07-07T06:01:39.169Z,20
2017-07-07T06:02:48.172Z,20
2017-07-07T06:03:57.091Z,20
2017-07-07T06:05:06.095Z,15
2017-07-07T06:06:15.010Z,20
2017-07-07T06:07:23.931Z,15
2017-07-07T06:08:32.852Z,15
2017-07-07T06:09:41.777Z,15
2017-07-07T06:10:50.745Z,15
2017-07-07T06:11:59.623Z,15
2017-07-07T06:13:08.545Z,15
2017-07-07T06:14:17.471Z,15
2017-07-07T06:15:26.396Z,15
2017-07-07T06:16:35.321Z,20
2017-07-07T06:17:44.240Z,20
2017-07-07T06:18:53.159Z,20
2017-07-07T06:20:02.080Z,20
2017-07-07T06:21:11.006Z,20
2017-07-07T06:22:19.915Z,25
2017-07-07T06:23:28.837Z,25
2017-07-07T06:24:37.762Z,25
2017-07-07T06:25:46.676Z,30
2017-07-07T06:26:55.609Z,30
2017-07-07T06:28:04.533Z,25
2017-07-07T06:29:13.451Z,25
2017-07-07T06:30:22.373Z,30
2017-07-07T06:31:31.292Z,30
2017-07-07T06:32:40.208Z,35
2017-07-07T06:33:49.126Z,40
2017-07-07T06:34:58.049Z,45
2017-07-07T06:36:06.977Z,45
2017-07-07T06:37:15.898Z,45
2017-07-07T06:38:24.824Z,50
2017-07-07T06:39:33.746Z,50
2017-07-07T06:40:42.659Z,50
2017-07-07T06:41:51.579Z,45
2017-07-07T06:43:00.503Z,45
2017-07-07T06:44:09.421Z,50
2017-07-07T06:45:18.343Z,50
2017-07-07T06:46:27.267Z,50
2017-07-07T06:47:36.197Z,50
2017-07-07T06:48:45.117Z,55
2017-07-07T06:49:54.043Z,55
2017-07-07T06:51:03.054Z,55
2017-07-07T06:52:11.978Z,45
2017-07-07T06:53:20.901Z,40
2017-07-07T06:54:29.830Z,35
2017-07-07T06:55:38.748Z,30
2017-07-07T06:56:47.667Z,25
2017-07-07T06:57:56.586Z,20
2017-07-07T06:59:05.511Z,20
2017-07-07T07:00:14.433Z,15
2017-07-07T07:01:23.357Z,15
2017-07-07T07:02:32.279Z,15
2017-07-07T07:03:41.202Z,15
2017-07-07T07:04:50.124Z,15
2017-07-07T07:05:59.041Z,10
2017-07-07T07:07:07.963Z,10
2017-07-07T07:08:16.884Z,15
2017-07-07T07:09:25.808Z,15
2017-07-07T07:10:34.731Z,15
2017-07-07T07:11:43.742Z,15
2017-07-07T07:12:52.750Z,15
2017-07-07T07:14:01.674Z,15
2017-07-07T07:15:10.602Z,15
2017-07-07T07:16:19.527Z,20
2017-07-07T07:17:28.527Z,20
2017-07-07T07:18:37.454Z,20
2017-07-07T07:19:46.371Z,20
2017-07-07T07:20:55.292Z,20
2017-07-07T07:22:04.207Z,20
2017-07-07T07:23:13.128Z,25
2017-07-07T07:24:22.040Z,25
2017-07-07T07:25:30.961Z,25
2017-07-07T07:26:39.883Z,25
2017-07-07T07:27:48.806Z,30
2017-07-07T07:28:57.725Z,25
2017-07-07T07:30:06.644Z,20
2017-07-07T07:31:15.568Z,20
2017-07-07T07:32:24.489Z,20
2017-07-07T07:33:33.415Z,15
2017-07-07T07:34:42.340Z,15
2017-07-07T07:35:51.261Z,20
2017-07-07T07:37:00.187Z,20
2017-07-07T07:38:09.110Z,20
2017-07-07T07:39:18.030Z,20
2017-07-07T07:40:27.028Z,20
2017-07-07T07:41:35.945Z,20
2017-07-07T07:42:44.864Z,20
2017-07-07T07:43:53.785Z,20
2017-07-07T07:45:02.700Z,20
2017-07-07T07:46:11.621Z,20
2017-07-07T07:47:20.547Z,25
2017-07-07T07:48:29.462Z,25
2017-07-07T07:49:38.392Z,30
2017-07-07T07:50:47.392Z,30
2017-07-07T07:51:56.317Z,40
2017-07-07T07:53:05.234Z,40
2017-07-07T07:54:14.155Z,40
2017-07-07T07:55:23.078Z,40
2017-07-07T07:56:32.001Z,35
2017-07-07T07:57:40.927Z,30
2017-07-07T07:58:49.843Z,25
2017-07-07T07:59:58.771Z,20
2017-07-07T08:01:07.689Z,15
2017-07-07T08:02:16.606Z,15
2017-07-07T08:03:25.531Z,15
2017-07-07T08:04:34.447Z,15
2017-07-07T08:05:43.375Z,15
2017-07-07T08:06:52.290Z,15
2017-07-07T08:08:01.211Z,15
2017-07-07T08:09:10.137Z,15
2017-07-07T08:10:19.057Z,10
2017-07-07T08:11:27.986Z,10
2017-07-07T08:12:36.995Z,10
2017-07-07T08:13:45.914Z,15
2017-07-07T08:14:54.835Z,15
2017-07-07T08:16:03.754Z,15
2017-07-07T08:17:12.675Z,20
2017-07-07T08:18:21.587Z,20
2017-07-07T08:19:30.510Z,25
2017-07-07T08:20:39.430Z,25
2017-07-07T08:21:48.359Z,20
2017-07-07T08:22:57.281Z,20
2017-07-07T08:24:06.201Z,25
2017-07-07T08:25:15.128Z,25
2017-07-07T08:26:24.046Z,25
2017-07-07T08:27:32.973Z,25
2017-07-07T08:28:41.895Z,25
2017-07-07T08:29:50.813Z,25
2017-07-07T08:30:59.740Z,25
2017-07-07T08:32:08.664Z,25
2017-07-07T08:33:17.669Z,25
2017-07-07T08:34:26.593Z,25
2017-07-07T08:35:35.513Z,30
2017-07-07T08:36:44.429Z,35
2017-07-07T08:37:53.355Z,40
2017-07-07T08:39:02.283Z,45
2017-07-07T08:40:11.211Z,40
2017-07-07T08:41:20.136Z,40
2017-07-07T08:42:29.065Z,35
2017-07-07T08:43:37.970Z,30
2017-07-07T08:44:46.888Z,30
2017-07-07T08:45:55.802Z,35
2017-07-07T08:47:04.719Z,35
2017-07-07T08:48:13.641Z,35
2017-07-07T08:49:22.563Z,25
2017-07-07T08:50:31.484Z,25
2017-07-07T08:51:40.410Z,20
2017-07-07T08:52:49.419Z,20
2017-07-07T08:53:58.337Z,15
2017-07-07T08:55:07.596Z,15
2017-07-07T08:56:16.546Z,15
2017-07-07T08:57:25.527Z,15
2017-07-07T08:58:34.784Z,15
2017-07-07T08:59:43.703Z,10
2017-07-07T09:00:52.625Z,10
2017-07-07T09:02:01.547Z,15
2017-07-07T09:03:10.466Z,15
2017-07-07T09:04:19.384Z,15
2017-07-07T09:05:28.315Z,15
2017-07-07T09:06:37.233Z,15
2017-07-07T09:07:46.161Z,15
2017-07-07T09:08:55.095Z,15
2017-07-07T09:10:04.025Z,15
2017-07-07T09:11:12.936Z,15
2017-07-07T09:12:22.194Z,15
2017-07-07T09:13:31.121Z,15
2017-07-07T09:14:40.042Z,15
2017-07-07T09:15:48.968Z,20
2017-07-07T09:16:57.968Z,25
2017-07-07T09:18:06.899Z,30
2017-07-07T09:19:15.822Z,35
2017-07-07T09:20:24.749Z,40
2017-07-07T09:21:33.665Z,40
2017-07-07T09:22:42.585Z,45
2017-07-07T09:23:51.500Z,45
2017-07-07T09:25:00.428Z,45
2017-07-07T09:26:09.352Z,45
2017-07-07T09:27:18.273Z,45
2017-07-07T09:28:27.201Z,45
2017-07-07T09:29:36.126Z,45
2017-07-07T09:30:45.051Z,45
2017-07-07T09:31:53.974Z,45
2017-07-07T09:33:02.894Z,50
2017-07-07T09:34:11.823Z,55
2017-07-07T09:35:21.074Z,55
2017-07-07T09:36:30.000Z,55
2017-07-07T09:37:38.916Z,65
2017-07-07T09:38:47.838Z,75
2017-07-07T09:39:56.757Z,95
2017-07-07T09:41:05.679Z,105
2017-07-07T09:42:14.602Z,85
2017-07-07T09:43:23.522Z,70
2017-07-07T09:44:32.444Z,70
2017-07-07T09:45:42.070Z,70
2017-07-07T09:46:50.996Z,75
2017-07-07T09:47:59.919Z,80
2017-07-07T09:49:08.844Z,85
2017-07-07T09:50:17.848Z,85
2017-07-07T09:51:26.772Z,85
2017-07-07T09:52:35.700Z,80
2017-07-07T09:53:44.620Z,75
2017-07-07T09:54:53.551Z,75
2017-07-07T09:56:02.480Z,75
2017-07-07T09:57:11.392Z,80
2017-07-07T09:58:20.321Z,75
2017-07-07T09:59:29.246Z,70
2017-07-07T10:00:38.168Z,65
2017-07-07T10:01:47.091Z,65
2017-07-07T10:02:58.312Z,60
2017-07-07T10:04:07.229Z,60
2017-07-07T10:05:16.148Z,55
2017-07-07T10:06:25.064Z,50
2017-07-07T10:07:33.992Z,50
2017-07-07T10:08:42.916Z,55
2017-07-07T10:09:51.833Z,60
2017-07-07T10:11:00.760Z,65
2017-07-07T10:12:09.872Z,75
2017-07-07T10:13:18.958Z,80
2017-07-07T10:14:27.877Z,90
2017-07-07T10:15:36.802Z,100
2017-07-07T10:16:45.724Z,125
2017-07-07T10:17:54.664Z,130
2017-07-07T10:19:03.587Z,130
2017-07-07T10:20:12.511Z,125
2017-07-07T10:21:21.431Z,130
2017-07-07T10:22:30.350Z,130
2017-07-07T10:23:39.275Z,135
2017-07-07T10:24:48.204Z,95
2017-07-07T10:25:57.133Z,95
2017-07-07T10:27:06.053Z,100
2017-07-07T10:28:14.968Z,90
2017-07-07T10:29:23.899Z,85
2017-07-07T10:30:32.822Z,85
2017-07-07T10:31:41.740Z,85
2017-07-07T10:32:50.665Z,80
2017-07-07T10:33:59.593Z,80
2017-07-07T10:35:08.527Z,80
2017-07-07T10:36:17.458Z,80
2017-07-07T10:37:26.384Z,80
2017-07-07T10:38:35.315Z,80
2017-07-07T10:39:44.238Z,80
2017-07-07T10:40:53.157Z,80
2017-07-07T10:42:02.402Z,80
2017-07-07T10:43:11.327Z,80
2017-07-07T10:44:20.695Z,80
2017-07-07T10:45:29.958Z,80
2017-07-07T10:46:38.881Z,75
2017-07-07T10:47:47.804Z,75
2017-07-07T10:48:56.733Z,75
2017-07-07T10:50:05.659Z,80
2017-07-07T10:51:14.587Z,75
2017-07-07T10:52:23.506Z,75
2017-07-07T10:53:32.435Z,75
2017-07-07T10:54:41.362Z,75
2017-07-07T10:55:50.286Z,75
2017-07-07T10:56:59.206Z,75
2017-07-07T10:58:08.133Z,75
2017-07-07T10:59:17.056Z,75
2017-07-07T11:00:25.976Z,75
2017-07-07T11:01:34.896Z,75
2017-07-07T11:02:43.819Z,75
2017-07-07T11:03:52.746Z,75
2017-07-07T11:05:01.669Z,75
2017-07-07T11:06:10.600Z,75
2017-07-07T11:07:19.514Z,75
2017-07-07T11:08:28.432Z,75
2017-07-07T11:09:37.355Z,75
2017-07-07T11:10:46.283Z,75
2017-07-07T11:11:55.207Z,75
2017-07-07T11:13:04.134Z,75
2017-07-07T11:14:13.100Z,75
2017-07-07T11:15:22.020Z,75
2017-07-07T11:16:30.942Z,75
2017-07-07T11:17:39.862Z,70
2017-07-07T11:18:48.776Z,70
2017-07-07T11:19:57.693Z,70
2017-07-07T11:21:06.618Z,70
2017-07-07T11:22:15.542Z,75
2017-07-07T11:23:24.457Z,75
2017-07-07T11:24:33.376Z,75
2017-07-07T11:25:42.295Z,70
2017-07-07T11:26:51.548Z,70
2017-07-07T11:28:00.462Z,70
2017-07-07T11:29:09.463Z,70
2017-07-07T11:30:18.386Z,65
2017-07-07T11:31:27.305Z,70
2017-07-07T11:32:36.221Z,70
2017-07-07T11:33:45.230Z,70
2017-07-07T11:34:54.146Z,70
2017-07-07T11:36:03.071Z,70
2017-07-07T11:37:11.993Z,70
2017-07-07T11:38:20.918Z,65
2017-07-07T11:39:29.839Z,65
2017-07-07T11:40:38.761Z,65
2017-07-07T11:41:47.683Z,65
2017-07-07T11:42:56.608Z,65
2017-07-07T11:44:05.529Z,65
2017-07-07T11:45:14.453Z,65
2017-07-07T11:46:23.376Z,65
2017-07-07T11:47:32.305Z,65
2017-07-07T11:48:41.232Z,65
2017-07-07T11:49:50.159Z,65
2017-07-07T11:50:59.086Z,60
2017-07-07T11:52:08.017Z,65
2017-07-07T11:53:16.946Z,65
2017-07-07T11:54:25.862Z,65
2017-07-07T11:55:34.786Z,65
2017-07-07T11:56:43.716Z,65
2017-07-07T11:57:52.642Z,65
2017-07-07T11:59:01.569Z,65
2017-07-07T12:00:10.489Z,65
2017-07-07T12:01:19.407Z,65
2017-07-07T12:02:28.322Z,65
2017-07-07T12:03:37.340Z,65
2017-07-07T12:04:46.266Z,85
2017-07-07T12:05:55.193Z,70
2017-07-07T12:07:04.112Z,75
2017-07-07T12:08:13.040Z,70
2017-07-07T12:09:21.966Z,75
2017-07-07T12:10:30.888Z,75
2017-07-07T12:11:39.811Z,70
2017-07-07T12:12:48.822Z,75
2017-07-07T12:13:57.750Z,75
2017-07-07T12:15:06.666Z,75
2017-07-07T12:16:15.589Z,70
2017-07-07T12:17:24.507Z,70
2017-07-07T12:18:33.520Z,65
2017-07-07T12:19:42.477Z,70
2017-07-07T12:20:51.372Z,75
2017-07-07T12:22:00.293Z,70
2017-07-07T12:23:09.214Z,70
2017-07-07T12:24:18.137Z,70
2017-07-07T12:25:27.141Z,70
2017-07-07T12:26:36.067Z,75
2017-07-07T12:27:44.986Z,65
2017-07-07T12:28:53.913Z,75
2017-07-07T12:30:02.833Z,70
2017-07-07T12:31:11.755Z,70
2017-07-07T12:32:20.678Z,70
2017-07-07T12:33:29.600Z,70
2017-07-07T12:34:38.530Z,65
2017-07-07T12:35:47.455Z,65
2017-07-07T12:36:56.373Z,70
2017-07-07T12:38:05.300Z,70
2017-07-07T12:39:14.230Z,70
2017-07-07T12:40:23.162Z,80
2017-07-07T12:41:32.091Z,90
2017-07-07T12:42:41.021Z,75
2017-07-07T12:43:49.949Z,65
2017-07-07T12:44:58.874Z,60
2017-07-07T12:46:07.803Z,60
2017-07-07T12:47:16.726Z,60
2017-07-07T12:48:25.648Z,60
2017-07-07T12:49:34.580Z,60
2017-07-07T12:50:43.599Z,60
2017-07-07T12:51:52.523Z,60
2017-07-07T12:53:01.445Z,65
2017-07-07T12:54:10.370Z,65
2017-07-07T12:55:19.295Z,65
2017-07-07T12:56:28.214Z,65
2017-07-07T12:57:37.138Z,65
2017-07-07T12:58:46.062Z,65
2017-07-07T12:59:54.989Z,60
2017-07-07T13:01:03.916Z,65
2017-07-07T13:02:12.836Z,65
2017-07-07T13:03:22.088Z,65
2017-07-07T13:04:31.020Z,65
2017-07-07T13:05:39.951Z,70
2017-07-07T13:06:48.875Z,65
2017-07-07T13:07:58.216Z,70
2017-07-07T13:09:07.139Z,40
2017-07-07T13:10:16.063Z,65
2017-07-07T13:11:24.991Z,65
2017-07-07T13:12:33.923Z,70
2017-07-07T13:13:42.841Z,40
2017-07-07T13:14:51.773Z,80
2017-07-07T13:16:00.697Z,80
2017-07-07T13:17:09.623Z,80
2017-07-07T13:18:18.545Z,100
2017-07-07T13:19:27.475Z,80
2017-07-07T13:20:36.394Z,70
2017-07-07T13:21:45.321Z,65
2017-07-07T13:22:54.250Z,65
2017-07-07T13:24:03.172Z,70
2017-07-07T13:25:12.094Z,45
2017-07-07T13:26:21.017Z,30
2017-07-07T13:27:29.935Z,35
2017-07-07T13:28:38.855Z,30
2017-07-07T13:29:47.780Z,35
2017-07-07T13:30:56.706Z,95
2017-07-07T13:32:05.633Z,85
2017-07-07T13:33:14.560Z,80
2017-07-07T13:34:23.576Z,90
2017-07-07T13:35:32.504Z,85
2017-07-07T13:36:41.432Z,80
2017-07-07T13:37:50.357Z,75
2017-07-07T13:38:59.287Z,75
2017-07-07T13:40:08.211Z,40
2017-07-07T13:41:17.141Z,90
2017-07-07T13:42:26.068Z,100
2017-07-07T13:43:34.987Z,80
2017-07-07T13:44:43.920Z,45
2017-07-07T13:45:52.847Z,45
2017-07-07T13:47:01.765Z,40
2017-07-07T13:48:10.693Z,65
2017-07-07T13:49:19.613Z,80
2017-07-07T13:50:28.533Z,75
2017-07-07T13:51:37.462Z,65
2017-07-07T13:52:46.389Z,70
2017-07-07T13:53:55.312Z,70
2017-07-07T13:55:04.240Z,65
2017-07-07T13:56:13.249Z,70
2017-07-07T13:57:22.173Z,55
2017-07-07T13:58:31.099Z,40
2017-07-07T13:59:40.021Z,45
2017-07-07T14:00:48.943Z,70
2017-07-07T14:01:57.865Z,90
2017-07-07T14:03:06.795Z,85
2017-07-07T14:04:15.727Z,80
2017-07-07T14:05:24.657Z,75
2017-07-07T14:06:33.581Z,75
2017-07-07T14:07:42.510Z,50
2017-07-07T14:08:51.439Z,45
2017-07-07T14:10:00.360Z,55
2017-07-07T14:11:09.289Z,95
2017-07-07T14:12:18.220Z,90
2017-07-07T14:13:27.140Z,55
2017-07-07T14:14:36.061Z,60
2017-07-07T14:15:44.990Z,45
2017-07-07T14:16:53.916Z,35
2017-07-07T14:18:02.872Z,35
2017-07-07T14:19:11.773Z,40
2017-07-07T14:20:20.703Z,40
2017-07-07T14:21:29.629Z,45
2017-07-07T14:22:38.551Z,45
2017-07-07T14:23:47.480Z,45
2017-07-07T14:24:56.467Z,80
2017-07-07T14:26:05.334Z,80
2017-07-07T14:27:14.256Z,75
2017-07-07T14:28:23.179Z,75
2017-07-07T14:29:32.105Z,70
2017-07-07T14:30:41.120Z,75
2017-07-07T14:31:50.042Z,75
2017-07-07T14:32:58.969Z,75
2017-07-07T14:34:07.902Z,80
2017-07-07T14:35:16.885Z,85
2017-07-07T14:36:25.752Z,85
2017-07-07T14:37:34.677Z,90
2017-07-07T14:38:43.605Z,85
2017-07-07T14:39:52.532Z,80
2017-07-07T14:41:01.451Z,55
2017-07-07T14:42:10.375Z,45
2017-07-07T14:43:19.299Z,50
2017-07-07T14:44:28.224Z,50
2017-07-07T14:45:37.153Z,50
2017-07-07T14:46:46.081Z,50
2017-07-07T14:47:55.011Z,50
2017-07-07T14:49:03.943Z,50
2017-07-07T14:50:13.201Z,40
2017-07-07T14:51:22.126Z,35
2017-07-07T14:52:31.041Z,30
2017-07-07T14:53:39.969Z,30
2017-07-07T14:54:48.900Z,30
2017-07-07T14:55:57.826Z,40
2017-07-07T14:57:06.748Z,45
2017-07-07T14:58:15.673Z,25
2017-07-07T14:59:24.596Z,30
2017-07-07T15:00:33.524Z,35
2017-07-07T15:01:42.448Z,45
2017-07-07T15:02:51.374Z,50
2017-07-07T15:04:00.306Z,55
2017-07-07T15:05:09.231Z,55
2017-07-07T15:06:18.157Z,50
2017-07-07T15:07:27.082Z,50
2017-07-07T15:08:36.008Z,45
2017-07-07T15:09:44.926Z,45
2017-07-07T15:10:53.855Z,50
2017-07-07T15:12:02.779Z,40
2017-07-07T15:13:11.695Z,30
2017-07-07T15:14:20.622Z,20
2017-07-07T15:15:29.562Z,20
2017-07-07T15:16:38.821Z,15
2017-07-07T15:17:47.742Z,10
2017-07-07T15:18:56.669Z,10
2017-07-07T15:20:05.592Z,10
2017-07-07T15:21:14.515Z,5
2017-07-07T15:22:23.433Z,10
2017-07-07T15:23:32.354Z,15
2017-07-07T15:24:41.278Z,15
2017-07-07T15:25:50.202Z,10
2017-07-07T15:26:59.211Z,10
2017-07-07T15:28:08.129Z,10
2017-07-07T15:29:17.380Z,15
2017-07-07T15:30:26.309Z,15
2017-07-07T15:31:35.229Z,15
2017-07-07T15:32:44.148Z,10
2017-07-07T15:33:53.072Z,10
2017-07-07T15:35:01.989Z,10
2017-07-07T15:36:10.915Z,5
2017-07-07T15:37:19.840Z,5
2017-07-07T15:38:28.764Z,0
2017-07-07T15:39:37.779Z,0
2017-07-07T15:40:46.710Z,0
2017-07-07T15:41:55.625Z,0
2017-07-07T15:43:04.558Z,0
2017-07-07T15:44:13.479Z,0
2017-07-07T15:45:22.404Z,0
2017-07-07T15:46:31.335Z,0
2017-07-07T15:47:40.254Z,0
2017-07-07T15:48:49.175Z,0
2017-07-07T15:49:58.107Z,0
2017-07-07T15:51:07.034Z,0
2017-07-07T15:52:15.957Z,0
2017-07-07T15:53:24.874Z,0
2017-07-07T15:54:33.798Z,0
2017-07-07T15:55:42.719Z,0
2017-07-07T15:56:51.639Z,5
2017-07-07T15:58:00.563Z,5
2017-07-07T15:59:09.492Z,5
2017-07-07T16:00:18.417Z,5
2017-07-07T16:01:27.329Z,5
2017-07-07T16:02:36.252Z,5
2017-07-07T16:03:45.174Z,5
2017-07-07T16:04:54.095Z,5
2017-07-07T16:06:03.020Z,0
2017-07-07T16:07:12.031Z,0
2017-07-07T16:08:20.955Z,0
2017-07-07T16:09:29.872Z,0
2017-07-07T16:10:38.869Z,0
2017-07-07T16:11:47.796Z,0
2017-07-07T16:12:56.715Z,0
2017-07-07T16:14:05.636Z,0
2017-07-07T16:15:14.559Z,0
2017-07-07T16:16:23.482Z,0
2017-07-07T16:17:32.492Z,0
2017-07-07T16:18:41.415Z,5
2017-07-07T16:19:50.425Z,5
2017-07-07T16:20:59.353Z,5
2017-07-07T16:22:08.268Z,5
2017-07-07T16:23:17.184Z,5
2017-07-07T16:24:26.107Z,0
2017-07-07T16:25:35.022Z,0
2017-07-07T16:26:43.949Z,0
2017-07-07T16:27:52.882Z,0
2017-07-07T16:29:01.807Z,0
2017-07-07T16:30:10.723Z,0
2017-07-07T16:31:19.645Z,0
2017-07-07T16:32:28.565Z,0
2017-07-07T16:33:37.487Z,0
2017-07-07T16:34:46.407Z,0